createdAt,value
2018-07-26T00:01:33.909Z,49.55
2018-07-26T00:04:01.989Z,49.24
2018-07-26T00:06:29.440Z,49.62
2018-07-26T00:08:56.950Z,49.50
2018-07-26T00:11:24.383Z,49.22
2018-07-26T00:13:51.806Z,49.26
2018-07-26T00:16:19.287Z,50.26
2018-07-26T00:18:46.770Z,49.79
2018-07-26T00:21:14.217Z,50.21
2018-07-26T00:23:41.679Z,50.41
2018-07-26T00:26:09.169Z,50.27
2018-07-26T00:28:36.569Z,50.37
2018-07-26T00:31:04.039Z,50.01
2018-07-26T00:33:31.501Z,49.75
2018-07-26T00:35:58.941Z,50.19
2018-07-26T00:38:26.397Z,50.35
2018-07-26T00:40:54.822Z,50.66
2018-07-26T00:43:22.353Z,50.37
2018-07-26T00:45:49.803Z,50.29
2018-07-26T00:48:17.313Z,49.90
2018-07-26T00:50:44.718Z,50.27
2018-07-26T00:53:12.176Z,50.81
2018-07-26T00:55:39.641Z,50.30
2018-07-26T00:58:07.062Z,50.53
2018-07-26T01:00:34.546Z,50.26
2018-07-26T01:03:02.015Z,51.12
2018-07-26T01:05:29.458Z,50.71
2018-07-26T01:07:56.935Z,50.18
2018-07-26T01:10:24.389Z,50.96
2018-07-26T01:12:52.282Z,50.82
2018-07-26T01:15:19.689Z,50.77
2018-07-26T01:17:47.175Z,51.41
2018-07-26T01:20:14.723Z,50.43
2018-07-26T01:22:42.071Z,51.10
2018-07-26T01:25:09.520Z,51.39
2018-07-26T01:27:36.990Z,50.36
2018-07-26T01:30:04.510Z,50.84
2018-07-26T01:32:31.902Z,50.55
2018-07-26T01:34:59.417Z,51.49
2018-07-26T01:37:26.857Z,51.60
2018-07-26T01:39:54.293Z,50.70
2018-07-26T01:42:21.721Z,51.32
2018-07-26T01:44:49.262Z,50.63
2018-07-26T01:47:16.656Z,50.15
2018-07-26T01:49:44.069Z,51.24
2018-07-26T01:52:11.537Z,51.53
2018-07-26T01:54:39.040Z,51.08
2018-07-26T01:57:06.465Z,50.73
2018-07-26T01:59:33.925Z,50.95
2018-07-26T02:02:01.436Z,51.94
2018-07-26T02:04:28.805Z,50.90
2018-07-26T02:06:56.287Z,51.29
2018-07-26T02:09:23.730Z,51.73
2018-07-26T02:11:51.210Z,51.84
2018-07-26T02:14:18.658Z,51.12
2018-07-26T02:16:46.137Z,51.61
2018-07-26T02:19:13.558Z,52.14
2018-07-26T02:21:41.041Z,51.78
2018-07-26T02:24:08.487Z,52.23
2018-07-26T02:26:35.946Z,51.10
2018-07-26T02:29:03.413Z,51.40
2018-07-26T02:31:30.861Z,51.90
2018-07-26T02:33:58.369Z,51.42
2018-07-26T02:36:25.814Z,52.04
2018-07-26T02:38:53.237Z,51.97
2018-07-26T02:41:20.694Z,51.81
2018-07-26T02:43:48.125Z,51.60
2018-07-26T02:46:15.613Z,51.13
2018-07-26T02:48:43.046Z,51.45
2018-07-26T02:51:10.542Z,51.02
2018-07-26T02:53:38.012Z,50.80
2018-07-26T02:56:05.429Z,51.70
2018-07-26T02:58:32.917Z,51.42
2018-07-26T03:01:00.360Z,51.46
2018-07-26T03:03:27.809Z,51.84
2018-07-26T03:05:55.253Z,51.54
2018-07-26T03:08:23.753Z,50.78
2018-07-26T03:10:51.230Z,51.04
2018-07-26T03:13:18.672Z,50.98
2018-07-26T03:15:46.102Z,50.98
2018-07-26T03:18:13.593Z,51.22
2018-07-26T03:20:41.038Z,51.68
2018-07-26T03:23:08.494Z,52.04
2018-07-26T03:25:35.934Z,51.25
2018-07-26T03:28:03.413Z,51.42
2018-07-26T03:30:30.857Z,51.18
2018-07-26T03:32:58.905Z,51.35
2018-07-26T03:35:26.390Z,51.79
2018-07-26T03:37:53.846Z,51.44
2018-07-26T03:40:21.329Z,52.06
2018-07-26T03:42:48.778Z,51.37
2018-07-26T03:45:16.230Z,51.51
2018-07-26T03:47:43.677Z,51.90
2018-07-26T03:50:11.113Z,51.13
2018-07-26T03:52:38.606Z,51.64
2018-07-26T03:55:06.035Z,51.74
2018-07-26T03:57:33.511Z,51.18
2018-07-26T04:00:00.857Z,51.42
2018-07-26T04:02:28.306Z,52.00
2018-07-26T04:04:55.664Z,51.49
2018-07-26T04:07:24.171Z,52.27
2018-07-26T04:09:51.610Z,51.47
2018-07-26T04:12:19.858Z,52.14
2018-07-26T04:14:48.038Z,51.61
2018-07-26T04:17:15.409Z,51.58
2018-07-26T04:19:42.881Z,52.10
2018-07-26T04:22:10.362Z,51.86
2018-07-26T04:24:37.821Z,52.43
2018-07-26T04:27:05.274Z,51.44
2018-07-26T04:29:33.020Z,51.62
2018-07-26T04:32:00.436Z,51.56
2018-07-26T04:34:27.815Z,52.37
2018-07-26T04:36:55.276Z,51.58
2018-07-26T04:39:22.950Z,51.90
2018-07-26T04:41:50.417Z,52.39
2018-07-26T04:44:17.858Z,52.07
2018-07-26T04:46:45.293Z,51.84
2018-07-26T04:49:12.765Z,51.49
2018-07-26T04:51:40.345Z,52.70
2018-07-26T04:54:07.744Z,52.24
2018-07-26T04:56:35.120Z,51.85
2018-07-26T04:59:02.627Z,52.57
2018-07-26T05:01:30.118Z,52.03
2018-07-26T05:03:57.508Z,51.61
2018-07-26T05:06:24.953Z,52.65
2018-07-26T05:08:52.418Z,52.19
2018-07-26T05:11:19.913Z,52.34
2018-07-26T05:13:47.341Z,52.17
2018-07-26T05:16:14.807Z,51.88
2018-07-26T05:18:42.256Z,51.97
2018-07-26T05:21:09.790Z,52.35
2018-07-26T05:23:37.151Z,53.05
2018-07-26T05:26:04.857Z,52.11
2018-07-26T05:28:32.278Z,52.10
2018-07-26T05:30:59.734Z,52.61
2018-07-26T05:33:27.283Z,51.96
2018-07-26T05:35:54.646Z,52.09
2018-07-26T05:38:22.102Z,52.61
2018-07-26T05:40:49.601Z,52.02
2018-07-26T05:43:17.034Z,51.77
2018-07-26T05:45:44.489Z,52.06
2018-07-26T05:48:11.974Z,52.02
2018-07-26T05:50:39.426Z,52.58
2018-07-26T05:53:06.891Z,51.56
2018-07-26T05:55:34.335Z,52.40
2018-07-26T05:58:01.828Z,52.42
2018-07-26T06:00:29.354Z,51.58
2018-07-26T06:02:56.802Z,52.50
2018-07-26T06:05:24.236Z,52.17
2018-07-26T06:07:51.738Z,51.95
2018-07-26T06:10:19.174Z,52.46
2018-07-26T06:12:46.610Z,52.54
2018-07-26T06:15:14.126Z,52.51
2018-07-26T06:17:41.567Z,52.79
2018-07-26T06:20:08.998Z,52.50
2018-07-26T06:22:36.481Z,52.93
2018-07-26T06:25:04.076Z,52.04
2018-07-26T06:27:31.538Z,51.90
2018-07-26T06:29:59.075Z,52.31
2018-07-26T06:32:26.567Z,52.53
2018-07-26T06:34:53.949Z,51.86
2018-07-26T06:37:21.405Z,51.49
2018-07-26T06:39:48.862Z,51.84
2018-07-26T06:42:16.290Z,51.87
2018-07-26T06:44:43.761Z,51.45
2018-07-26T06:47:11.326Z,52.09
2018-07-26T06:49:39.111Z,51.18
2018-07-26T06:52:07.294Z,51.89
2018-07-26T06:54:34.730Z,52.00
2018-07-26T06:57:02.872Z,52.10
2018-07-26T06:59:30.258Z,51.03
2018-07-26T07:01:57.566Z,51.38
2018-07-26T07:04:24.892Z,50.82
2018-07-26T07:06:52.226Z,51.41
2018-07-26T07:09:19.542Z,51.29
2018-07-26T07:11:50.467Z,51.32
2018-07-26T07:14:17.814Z,51.93
2018-07-26T07:16:45.177Z,52.21
2018-07-26T07:19:13.590Z,51.66
2018-07-26T07:21:42.225Z,51.95
2018-07-26T07:24:09.578Z,50.96
2018-07-26T07:26:37.122Z,51.42
2018-07-26T07:29:04.586Z,50.57
2018-07-26T07:31:32.097Z,51.43
2018-07-26T07:33:59.546Z,51.43
2018-07-26T07:36:27.067Z,50.58
2018-07-26T07:38:54.369Z,50.53
2018-07-26T07:41:21.866Z,51.09
2018-07-26T07:43:49.314Z,50.46
2018-07-26T07:46:16.745Z,50.10
2018-07-26T07:48:44.189Z,50.17
2018-07-26T07:51:19.793Z,50.82
2018-07-26T07:53:47.206Z,50.42
2018-07-26T07:56:14.678Z,50.03
2018-07-26T07:58:42.030Z,49.91
2018-07-26T08:01:09.377Z,49.64
2018-07-26T08:03:36.737Z,49.45
2018-07-26T08:06:04.176Z,49.32
2018-07-26T08:08:31.525Z,49.33
2018-07-26T08:10:58.896Z,49.02
2018-07-26T08:13:26.376Z,49.74
2018-07-26T08:15:53.888Z,48.54
2018-07-26T08:18:21.992Z,49.06
2018-07-26T08:20:49.367Z,49.25
2018-07-26T08:23:16.794Z,49.38
2018-07-26T08:25:44.237Z,48.70
2018-07-26T08:28:11.761Z,49.08
2018-07-26T08:30:39.202Z,48.76
2018-07-26T08:33:06.622Z,48.40
2018-07-26T08:35:34.170Z,48.67
2018-07-26T08:38:01.535Z,48.64
2018-07-26T08:40:29.027Z,47.78
2018-07-26T08:42:56.449Z,48.26
2018-07-26T08:45:23.913Z,47.73
2018-07-26T08:47:51.401Z,48.66
2018-07-26T08:50:18.820Z,48.34
2018-07-26T08:52:46.333Z,47.34
2018-07-26T08:55:20.376Z,46.56
2018-07-26T08:57:48.594Z,46.83
2018-07-26T09:00:16.045Z,46.30
2018-07-26T09:02:43.523Z,46.94
2018-07-26T09:05:10.967Z,46.37
2018-07-26T09:07:38.428Z,46.74
2018-07-26T09:10:05.865Z,46.34
2018-07-26T09:12:33.307Z,45.86
2018-07-26T09:15:00.795Z,46.59
2018-07-26T09:17:28.234Z,46.15
2018-07-26T09:19:55.697Z,45.48
2018-07-26T09:22:23.145Z,45.45
2018-07-26T09:24:50.594Z,45.76
2018-07-26T09:27:18.061Z,45.16
2018-07-26T09:29:45.513Z,45.60
2018-07-26T09:32:12.972Z,46.04
2018-07-26T09:34:40.408Z,45.81
2018-07-26T09:37:07.907Z,46.09
2018-07-26T09:39:35.365Z,45.50
2018-07-26T09:42:02.797Z,45.16
2018-07-26T09:44:30.275Z,44.50
2018-07-26T09:46:57.742Z,45.23
2018-07-26T09:49:25.232Z,44.06
2018-07-26T09:51:52.647Z,44.75
2018-07-26T09:54:20.094Z,43.52
2018-07-26T09:56:47.578Z,43.91
2018-07-26T09:59:14.990Z,44.89
2018-07-26T10:01:42.461Z,44.38
2018-07-26T10:04:09.901Z,44.27
2018-07-26T10:06:37.414Z,43.48
2018-07-26T10:09:07.988Z,44.24
2018-07-26T10:11:35.446Z,43.08
2018-07-26T10:14:02.916Z,43.47
2018-07-26T10:16:30.266Z,43.65
2018-07-26T10:18:57.733Z,43.56
2018-07-26T10:21:25.218Z,43.75
2018-07-26T10:23:52.645Z,43.27
2018-07-26T10:26:20.138Z,43.68
2018-07-26T10:28:47.573Z,42.71
2018-07-26T10:31:15.018Z,43.18
2018-07-26T10:33:42.477Z,42.73
2018-07-26T10:36:09.942Z,42.99
2018-07-26T10:38:37.379Z,42.96
2018-07-26T10:41:04.867Z,42.40
2018-07-26T10:43:32.302Z,43.02
2018-07-26T10:45:59.766Z,43.04
2018-07-26T10:48:27.221Z,42.54
2018-07-26T10:50:54.713Z,43.07
2018-07-26T10:53:22.184Z,42.17
2018-07-26T10:55:49.618Z,43.38
2018-07-26T10:58:17.031Z,42.40
2018-07-26T11:00:44.527Z,41.98
2018-07-26T11:03:11.938Z,42.78
2018-07-26T11:05:39.313Z,42.02
2018-07-26T11:08:06.853Z,41.58
2018-07-26T11:10:34.227Z,41.24
2018-07-26T11:13:01.734Z,40.87
2018-07-26T11:15:29.126Z,42.21
2018-07-26T11:17:56.583Z,42.26
2018-07-26T11:20:24.053Z,41.95
2018-07-26T11:22:51.538Z,41.88
2018-07-26T11:25:19.018Z,42.78
2018-07-26T11:27:46.460Z,42.46
2018-07-26T11:30:13.918Z,41.40
2018-07-26T11:32:41.367Z,42.54
2018-07-26T11:35:08.782Z,42.73
2018-07-26T11:37:36.270Z,44.37
2018-07-26T11:40:04.138Z,45.19
2018-07-26T11:42:31.605Z,43.98
2018-07-26T11:44:59.043Z,44.29
2018-07-26T11:47:26.350Z,44.39
2018-07-26T11:49:53.754Z,45.06
2018-07-26T11:52:21.078Z,44.28
2018-07-26T11:54:48.462Z,45.15
2018-07-26T11:57:15.910Z,44.85
2018-07-26T11:59:43.302Z,44.94
2018-07-26T12:02:10.826Z,45.58
2018-07-26T12:04:38.388Z,45.06
2018-07-26T12:07:05.830Z,45.44
2018-07-26T12:09:33.271Z,45.64
2018-07-26T12:12:00.661Z,45.05
2018-07-26T12:14:28.185Z,45.04
2018-07-26T12:16:55.586Z,45.22
2018-07-26T12:19:23.029Z,45.45
2018-07-26T12:21:50.690Z,44.82
2018-07-26T12:24:18.205Z,44.64
2018-07-26T12:26:45.635Z,44.82
2018-07-26T12:29:13.078Z,45.22
2018-07-26T12:31:40.510Z,45.84
2018-07-26T12:34:07.983Z,45.23
2018-07-26T12:36:35.434Z,44.76
2018-07-26T12:39:03.246Z,44.99
2018-07-26T12:41:30.762Z,44.85
2018-07-26T12:43:58.114Z,45.66
2018-07-26T12:46:25.558Z,44.86
2018-07-26T12:48:53.052Z,45.48
2018-07-26T12:51:20.466Z,44.84
2018-07-26T12:53:47.945Z,45.66
2018-07-26T12:56:15.405Z,45.65
2018-07-26T12:58:42.862Z,45.33
2018-07-26T13:01:10.322Z,45.27
2018-07-26T13:03:37.758Z,45.27
2018-07-26T13:06:05.242Z,45.27
2018-07-26T13:08:32.709Z,45.36
2018-07-26T13:11:00.187Z,45.67
2018-07-26T13:13:27.625Z,45.54
2018-07-26T13:15:55.095Z,44.88
2018-07-26T13:18:22.514Z,44.98
2018-07-26T13:20:50.011Z,45.07
2018-07-26T13:23:17.973Z,44.79
2018-07-26T13:25:45.530Z,45.46
2018-07-26T13:28:13.054Z,45.11
2018-07-26T13:30:40.530Z,45.23
2018-07-26T13:33:08.006Z,44.90
2018-07-26T13:35:35.438Z,44.89
2018-07-26T13:38:02.912Z,45.17
2018-07-26T13:40:30.350Z,45.96
2018-07-26T13:42:57.795Z,45.70
2018-07-26T13:45:25.305Z,44.88
2018-07-26T13:47:52.870Z,44.84
2018-07-26T13:50:21.093Z,45.03
2018-07-26T13:52:54.573Z,45.40
2018-07-26T13:55:34.601Z,45.92
2018-07-26T13:58:12.557Z,45.07
2018-07-26T14:00:39.930Z,44.73
2018-07-26T14:03:07.356Z,45.02
2018-07-26T14:05:34.825Z,45.81
2018-07-26T14:08:02.286Z,45.53
2018-07-26T14:10:29.735Z,45.15
2018-07-26T14:12:57.195Z,45.17
2018-07-26T14:15:24.802Z,45.44
2018-07-26T14:17:52.136Z,44.88
2018-07-26T14:20:19.554Z,44.96
2018-07-26T14:22:47.006Z,45.18
2018-07-26T14:25:14.497Z,45.37
2018-07-26T14:27:41.956Z,44.79
2018-07-26T14:30:09.376Z,44.62
2018-07-26T14:32:36.857Z,44.50
2018-07-26T14:35:05.131Z,45.11
2018-07-26T14:37:32.487Z,45.16
2018-07-26T14:39:59.965Z,45.38
2018-07-26T14:42:27.489Z,44.58
2018-07-26T14:44:55.253Z,44.79
2018-07-26T14:47:22.743Z,45.35
2018-07-26T14:49:50.201Z,45.41
2018-07-26T14:52:17.621Z,45.07
2018-07-26T14:54:45.187Z,44.46
2018-07-26T14:57:12.645Z,45.26
2018-07-26T14:59:40.125Z,45.70
2018-07-26T15:02:07.669Z,45.14
2018-07-26T15:04:35.018Z,44.83
2018-07-26T15:07:02.470Z,45.13
2018-07-26T15:09:29.944Z,45.41
2018-07-26T15:11:57.374Z,45.23
2018-07-26T15:14:24.859Z,44.83
2018-07-26T15:16:52.318Z,44.50
2018-07-26T15:19:19.769Z,45.48
2018-07-26T15:21:47.144Z,45.69
2018-07-26T15:24:15.148Z,45.93
2018-07-26T15:26:42.567Z,47.06
2018-07-26T15:29:10.015Z,46.96
2018-07-26T15:31:37.451Z,47.25
2018-07-26T15:34:04.809Z,47.89
2018-07-26T15:36:32.449Z,47.00
2018-07-26T15:38:59.774Z,47.75
2018-07-26T15:41:27.197Z,47.22
2018-07-26T15:43:54.677Z,46.83
2018-07-26T15:46:22.089Z,46.25
2018-07-26T15:48:49.549Z,46.59
2018-07-26T15:51:17.071Z,46.53
2018-07-26T15:53:44.567Z,46.05
2018-07-26T15:56:11.925Z,46.76
2018-07-26T15:58:39.426Z,46.42
2018-07-26T16:01:06.842Z,45.96
2018-07-26T16:03:34.420Z,46.65
2018-07-26T16:06:01.809Z,46.13
2018-07-26T16:08:29.243Z,46.21
2018-07-26T16:10:56.787Z,46.13
2018-07-26T16:13:24.158Z,45.92
2018-07-26T16:15:51.583Z,46.59
2018-07-26T16:18:19.054Z,45.90
2018-07-26T16:20:46.564Z,46.01
2018-07-26T16:23:13.969Z,45.81
2018-07-26T16:25:41.417Z,46.08
2018-07-26T16:28:08.941Z,46.61
2018-07-26T16:30:36.343Z,45.55
2018-07-26T16:33:03.814Z,45.97
2018-07-26T16:35:31.913Z,45.98
2018-07-26T16:37:59.421Z,46.19
2018-07-26T16:40:26.893Z,45.45
2018-07-26T16:42:54.314Z,46.39
2018-07-26T16:45:21.811Z,46.11
2018-07-26T16:47:49.748Z,45.52
2018-07-26T16:50:17.109Z,46.26
2018-07-26T16:52:44.621Z,46.53
2018-07-26T16:55:12.034Z,45.69
2018-07-26T16:57:39.467Z,45.33
2018-07-26T17:00:07.859Z,45.59
2018-07-26T17:02:35.334Z,45.96
2018-07-26T17:05:02.746Z,45.92
2018-07-26T17:07:30.184Z,45.75
2018-07-26T17:09:57.680Z,46.17
2018-07-26T17:12:25.119Z,46.35
2018-07-26T17:14:52.499Z,45.58
2018-07-26T17:17:19.961Z,45.73
2018-07-26T17:19:47.459Z,46.38
2018-07-26T17:22:14.898Z,45.56
2018-07-26T17:24:42.370Z,45.99
2018-07-26T17:27:09.798Z,45.63
2018-07-26T17:29:37.266Z,46.20
2018-07-26T17:32:04.713Z,45.82
2018-07-26T17:34:32.176Z,45.15
2018-07-26T17:36:59.657Z,45.09
2018-07-26T17:39:27.151Z,45.55
2018-07-26T17:41:54.562Z,44.87
2018-07-26T17:44:22.061Z,45.38
2018-07-26T17:46:49.442Z,45.09
2018-07-26T17:49:16.922Z,44.72
2018-07-26T17:51:44.367Z,45.73
2018-07-26T17:54:11.823Z,44.83
2018-07-26T17:56:39.352Z,44.54
2018-07-26T17:59:06.770Z,45.08
2018-07-26T18:01:34.210Z,44.86
2018-07-26T18:04:01.666Z,44.67
2018-07-26T18:06:30.145Z,44.49
2018-07-26T18:08:57.586Z,45.27
2018-07-26T18:11:25.053Z,44.18
2018-07-26T18:13:52.548Z,44.09
2018-07-26T18:16:19.969Z,44.39
2018-07-26T18:18:47.453Z,44.57
2018-07-26T18:21:14.864Z,44.61
2018-07-26T18:23:42.337Z,44.22
2018-07-26T18:26:09.858Z,44.55
2018-07-26T18:28:37.253Z,45.09
2018-07-26T18:31:04.751Z,44.83
2018-07-26T18:33:32.354Z,43.94
2018-07-26T18:35:59.837Z,43.33
2018-07-26T18:38:27.341Z,43.68
2018-07-26T18:40:54.797Z,41.70
2018-07-26T18:43:22.208Z,41.71
2018-07-26T18:45:49.645Z,41.30
2018-07-26T18:48:17.189Z,41.48
2018-07-26T18:50:44.570Z,41.15
2018-07-26T18:53:12.032Z,40.81
2018-07-26T18:55:39.507Z,40.79
2018-07-26T18:58:06.934Z,40.43
2018-07-26T19:00:34.448Z,39.92
2018-07-26T19:03:01.886Z,39.81
2018-07-26T19:05:29.332Z,39.85
2018-07-26T19:07:56.797Z,39.54
2018-07-26T19:10:24.227Z,39.18
2018-07-26T19:12:51.690Z,38.31
2018-07-26T19:15:19.165Z,38.99
2018-07-26T19:17:46.598Z,39.07
2018-07-26T19:20:14.086Z,39.09
2018-07-26T19:22:41.539Z,39.39
2018-07-26T19:25:09.026Z,39.44
2018-07-26T19:27:36.441Z,39.09
2018-07-26T19:30:05.322Z,39.60
2018-07-26T19:32:32.799Z,39.77
2018-07-26T19:35:00.222Z,38.81
2018-07-26T19:37:27.736Z,39.03
2018-07-26T19:39:55.154Z,39.52
2018-07-26T19:42:22.595Z,40.09
2018-07-26T19:44:50.066Z,39.88
2018-07-26T19:47:17.546Z,40.13
2018-07-26T19:49:45.036Z,39.94
2018-07-26T19:52:12.468Z,40.44
2018-07-26T19:54:39.902Z,40.22
2018-07-26T19:57:07.467Z,40.02
2018-07-26T19:59:34.793Z,40.56
2018-07-26T20:02:02.211Z,41.28
2018-07-26T20:04:29.641Z,40.48
2018-07-26T20:06:57.099Z,40.80
2018-07-26T20:09:24.530Z,40.57
2018-07-26T20:11:52.919Z,40.92
2018-07-26T20:14:20.264Z,40.97
2018-07-26T20:16:47.785Z,41.12
2018-07-26T20:19:15.225Z,41.64
2018-07-26T20:21:42.649Z,37.83
2018-07-26T20:24:10.210Z,38.97
2018-07-26T20:26:37.578Z,37.57
2018-07-26T20:29:07.620Z,39.62
2018-07-26T20:31:35.049Z,39.61
2018-07-26T20:34:02.509Z,39.45
2018-07-26T20:36:29.918Z,41.48
2018-07-26T20:38:57.558Z,41.98
2018-07-26T20:41:25.167Z,41.15
2018-07-26T20:43:52.518Z,41.17
2018-07-26T20:46:20.007Z,40.72
2018-07-26T20:48:47.503Z,40.44
2018-07-26T20:51:15.016Z,39.97
2018-07-26T20:53:42.562Z,41.84
2018-07-26T20:56:10.028Z,41.69
2018-07-26T20:58:38.827Z,42.46
2018-07-26T21:01:06.450Z,42.43
2018-07-26T21:03:33.796Z,42.07
2018-07-26T21:06:01.289Z,41.42
2018-07-26T21:08:28.820Z,42.42
2018-07-26T21:10:56.187Z,42.43
2018-07-26T21:13:23.645Z,41.43
2018-07-26T21:15:51.250Z,41.55
2018-07-26T21:18:18.844Z,42.41
2018-07-26T21:20:46.211Z,42.08
2018-07-26T21:23:13.686Z,42.29
2018-07-26T21:25:41.157Z,42.56
2018-07-26T21:28:08.593Z,41.83
2018-07-26T21:30:36.104Z,42.16
2018-07-26T21:33:03.496Z,41.59
2018-07-26T21:35:30.975Z,42.00
2018-07-26T21:37:58.430Z,41.71
2018-07-26T21:40:25.925Z,40.74
2018-07-26T21:42:53.370Z,41.38
2018-07-26T21:45:20.863Z,40.54
2018-07-26T21:47:48.401Z,41.64
2018-07-26T21:50:15.922Z,41.13
2018-07-26T21:52:43.624Z,40.44
2018-07-26T21:55:11.097Z,40.29
2018-07-26T21:57:38.513Z,41.12
2018-07-26T22:00:08.334Z,40.95
2018-07-26T22:02:36.029Z,40.36
2018-07-26T22:05:03.975Z,40.37
2018-07-26T22:07:31.490Z,40.27
2018-07-26T22:09:58.957Z,40.65
2018-07-26T22:12:26.414Z,40.23
2018-07-26T22:14:53.899Z,40.84
2018-07-26T22:17:21.314Z,40.09
2018-07-26T22:19:48.963Z,40.37
2018-07-26T22:22:18.686Z,40.86
2018-07-26T22:24:46.147Z,40.67
2018-07-26T22:27:13.755Z,40.54
2018-07-26T22:29:41.274Z,39.99
2018-07-26T22:32:08.719Z,39.78
2018-07-26T22:34:36.200Z,40.70
2018-07-26T22:37:03.718Z,39.75
2018-07-26T22:39:31.111Z,39.77
2018-07-26T22:41:58.555Z,39.33
2018-07-26T22:44:26.023Z,39.47
2018-07-26T22:46:53.502Z,39.09
2018-07-26T22:49:20.962Z,40.20
2018-07-26T22:51:48.412Z,39.00
2018-07-26T22:54:15.838Z,39.70
2018-07-26T22:56:43.336Z,39.63
2018-07-26T22:59:10.750Z,38.82
2018-07-26T23:01:38.247Z,40.00
2018-07-26T23:04:05.695Z,39.36
2018-07-26T23:06:44.603Z,38.86
2018-07-26T23:09:12.111Z,40.10
2018-07-26T23:11:39.613Z,39.90
2018-07-26T23:14:07.014Z,39.43
2018-07-26T23:16:34.413Z,38.76
2018-07-26T23:19:01.914Z,39.08
2018-07-26T23:21:29.367Z,39.16
2018-07-26T23:23:56.790Z,39.00
2018-07-26T23:26:24.288Z,38.75
2018-07-26T23:28:51.742Z,38.73
2018-07-26T23:31:19.218Z,38.37
2018-07-26T23:33:46.622Z,39.33
2018-07-26T23:36:14.115Z,39.47
2018-07-26T23:38:41.578Z,39.04
2018-07-26T23:41:09.512Z,39.47
2018-07-26T23:43:37.057Z,38.63
2018-07-26T23:46:04.707Z,39.27
2018-07-26T23:48:32.175Z,39.27
2018-07-26T23:50:59.718Z,39.50
2018-07-26T23:53:27.090Z,38.75
2018-07-26T23:55:54.579Z,38.37
2018-07-26T23:58:22.031Z,38.39
